createdAt,value
2019-06-01T00:00:48.745Z,93.60
2019-06-01T00:03:17.679Z,93.50
2019-06-01T00:05:46.922Z,93.50
2019-06-01T00:08:16.044Z,93.40
2019-06-01T00:10:45.201Z,93.40
2019-06-01T00:13:14.147Z,93.20
2019-06-01T00:15:43.944Z,93.00
2019-06-01T00:18:12.962Z,93.00
2019-06-01T00:20:42.231Z,92.90
2019-06-01T00:23:11.354Z,93.00
2019-06-01T00:25:40.478Z,93.10
2019-06-01T00:28:09.850Z,93.00
2019-06-01T00:30:39.060Z,93.00
2019-06-01T00:33:08.151Z,93.20
2019-06-01T00:35:37.042Z,93.20
2019-06-01T00:38:06.021Z,93.30
2019-06-01T00:40:35.603Z,93.30
2019-06-01T00:43:04.636Z,93.30
2019-06-01T00:45:34.247Z,93.30
2019-06-01T00:48:03.211Z,93.30
2019-06-01T00:50:32.236Z,93.20
2019-06-01T00:53:02.912Z,93.20
2019-06-01T00:55:31.833Z,93.20
2019-06-01T00:58:00.753Z,93.20
2019-06-01T01:00:42.849Z,93.20
2019-06-01T01:03:00.695Z,93.20
2019-06-01T01:05:29.787Z,93.20
2019-06-01T01:07:58.903Z,93.10
2019-06-01T01:10:27.875Z,93.20
2019-06-01T01:13:04.543Z,93.30
2019-06-01T01:15:34.203Z,93.30
2019-06-01T01:18:03.149Z,93.20
2019-06-01T01:20:32.560Z,93.30
2019-06-01T01:23:01.463Z,93.30
2019-06-01T01:25:30.760Z,93.50
2019-06-01T01:27:59.760Z,93.50
2019-06-01T01:30:28.948Z,93.30
2019-06-01T01:32:59.429Z,93.30
2019-06-01T01:35:28.678Z,93.30
2019-06-01T01:37:58.659Z,93.20
2019-06-01T01:40:28.938Z,93.10
2019-06-01T01:42:58.901Z,93.10
2019-06-01T01:45:28.109Z,93.20
2019-06-01T01:47:57.328Z,93.30
2019-06-01T01:50:28.386Z,93.40
2019-06-01T01:52:57.357Z,93.40
2019-06-01T01:55:26.561Z,93.40
2019-06-01T01:57:55.670Z,93.20
2019-06-01T02:00:42.645Z,93.30
2019-06-01T02:03:12.294Z,93.20
2019-06-01T02:05:41.410Z,93.10
2019-06-01T02:08:10.656Z,93.20
2019-06-01T02:10:39.664Z,93.20
2019-06-01T02:13:08.659Z,93.10
2019-06-01T02:15:38.807Z,93.10
2019-06-01T02:18:07.886Z,93.20
2019-06-01T02:20:37.069Z,93.20
2019-06-01T02:23:06.283Z,93.10
2019-06-01T02:25:35.807Z,93.10
2019-06-01T02:28:04.982Z,93.10
2019-06-01T02:30:34.004Z,93.10
2019-06-01T02:33:04.659Z,93.20
2019-06-01T02:35:33.922Z,93.20
2019-06-01T02:38:03.717Z,93.20
2019-06-01T02:40:33.850Z,93.20
2019-06-01T02:43:04.221Z,93.40
2019-06-01T02:45:33.371Z,93.10
2019-06-01T02:48:03.810Z,93.10
2019-06-01T02:50:33.219Z,93.00
2019-06-01T02:53:03.524Z,92.80
2019-06-01T02:55:32.857Z,92.90
2019-06-01T02:58:02.399Z,92.90
2019-06-01T03:00:51.415Z,93.00
2019-06-01T03:03:20.531Z,93.00
2019-06-01T03:05:51.152Z,93.10
2019-06-01T03:08:20.925Z,93.00
2019-06-01T03:10:52.112Z,93.00
2019-06-01T03:13:23.098Z,92.70
2019-06-01T03:15:54.378Z,92.80
2019-06-01T03:18:26.253Z,93.00
2019-06-01T03:20:57.164Z,93.00
2019-06-01T03:23:27.825Z,93.00
2019-06-01T03:25:57.625Z,93.10
2019-06-01T03:28:28.664Z,93.10
2019-06-01T03:30:57.668Z,93.10
2019-06-01T03:33:26.666Z,93.30
2019-06-01T03:35:55.683Z,93.30
2019-06-01T03:38:24.843Z,93.40
2019-06-01T03:40:53.845Z,93.40
2019-06-01T03:43:22.944Z,93.70
2019-06-01T03:45:52.036Z,93.30
2019-06-01T03:48:21.033Z,93.40
2019-06-01T03:50:50.238Z,93.30
2019-06-01T03:53:19.329Z,93.30
2019-06-01T03:55:48.333Z,93.40
2019-06-01T03:58:17.417Z,93.30
2019-06-01T04:00:46.307Z,93.30
2019-06-01T04:03:15.319Z,93.50
2019-06-01T04:05:44.513Z,93.60
2019-06-01T04:08:13.484Z,93.40
2019-06-01T04:10:42.503Z,93.40
2019-06-01T04:13:11.937Z,93.20
2019-06-01T04:15:40.998Z,92.90
2019-06-01T04:18:10.273Z,93.10
2019-06-01T04:20:39.406Z,93.10
2019-06-01T04:23:08.368Z,93.30
2019-06-01T04:25:37.284Z,93.30
2019-06-01T04:28:08.196Z,93.30
2019-06-01T04:30:37.406Z,93.20
2019-06-01T04:33:07.019Z,92.40
2019-06-01T04:35:36.447Z,91.50
2019-06-01T04:38:05.659Z,90.30
2019-06-01T04:40:34.740Z,88.70
2019-06-01T04:43:03.866Z,86.70
2019-06-01T04:45:34.011Z,86.20
2019-06-01T04:48:04.234Z,85.20
2019-06-01T04:50:34.083Z,84.80
2019-06-01T04:53:03.030Z,85.10
2019-06-01T04:55:31.953Z,85.70
2019-06-01T04:58:00.955Z,86.40
2019-06-01T05:00:29.838Z,86.20
2019-06-01T05:03:05.449Z,85.10
2019-06-01T05:05:29.524Z,83.40
2019-06-01T05:07:58.444Z,81.70
2019-06-01T05:10:27.573Z,80.10
2019-06-01T05:12:56.580Z,78.80
2019-06-01T05:15:25.559Z,78.00
2019-06-01T05:17:54.661Z,78.50
2019-06-01T05:20:23.751Z,78.40
2019-06-01T05:22:53.739Z,78.90
2019-06-01T05:25:22.665Z,79.50
2019-06-01T05:27:51.654Z,79.70
2019-06-01T05:30:20.647Z,80.60
2019-06-01T05:32:49.668Z,82.00
2019-06-01T05:35:18.741Z,83.60
2019-06-01T05:37:47.716Z,85.30
2019-06-01T05:40:17.101Z,86.90
2019-06-01T05:42:46.129Z,87.30
2019-06-01T05:45:17.200Z,88.40
2019-06-01T05:47:45.952Z,89.80
2019-06-01T05:50:16.412Z,89.00
2019-06-01T05:52:45.336Z,89.80
2019-06-01T05:55:14.688Z,90.20
2019-06-01T05:57:43.976Z,90.70
2019-06-01T06:00:13.272Z,90.00
2019-06-01T06:02:42.288Z,89.60
2019-06-01T06:05:12.532Z,89.10
2019-06-01T06:07:41.599Z,90.10
2019-06-01T06:10:11.824Z,90.20
2019-06-01T06:12:41.119Z,89.80
2019-06-01T06:15:11.448Z,90.70
2019-06-01T06:17:40.776Z,90.80
2019-06-01T06:20:10.052Z,90.90
2019-06-01T06:22:41.206Z,90.30
2019-06-01T06:25:10.850Z,90.50
2019-06-01T06:27:39.901Z,90.30
2019-06-01T06:30:09.188Z,89.30
2019-06-01T06:32:38.294Z,89.20
2019-06-01T06:35:07.502Z,89.50
2019-06-01T06:37:36.597Z,90.00
2019-06-01T06:40:09.642Z,88.90
2019-06-01T06:42:39.087Z,90.10
2019-06-01T06:45:08.315Z,90.00
2019-06-01T06:47:37.332Z,90.00
2019-06-01T06:50:10.900Z,90.60
2019-06-01T06:52:40.194Z,89.80
2019-06-01T06:55:09.155Z,89.40
2019-06-01T06:57:38.305Z,89.50
2019-06-01T07:00:08.634Z,89.60
2019-06-01T07:02:37.569Z,88.20
2019-06-01T07:05:08.012Z,88.70
2019-06-01T07:07:37.039Z,88.40
2019-06-01T07:10:06.709Z,87.30
2019-06-01T07:12:38.154Z,87.50
2019-06-01T07:15:07.606Z,87.90
2019-06-01T07:17:39.701Z,88.00
2019-06-01T07:20:09.326Z,87.90
2019-06-01T07:22:38.513Z,85.00
2019-06-01T07:25:07.780Z,84.40
2019-06-01T07:27:37.158Z,84.40
2019-06-01T07:30:06.869Z,80.30
2019-06-01T07:32:35.873Z,78.60
2019-06-01T07:35:06.950Z,78.30
2019-06-01T07:37:35.759Z,79.80
2019-06-01T07:40:06.479Z,78.60
2019-06-01T07:42:35.667Z,79.80
2019-06-01T07:45:05.784Z,82.70
2019-06-01T07:47:34.747Z,83.10
2019-06-01T07:50:05.574Z,81.30
2019-06-01T07:52:34.575Z,80.60
2019-06-01T07:55:04.202Z,80.90
2019-06-01T07:57:33.292Z,80.70
2019-06-01T08:00:02.392Z,75.40
2019-06-01T08:02:31.372Z,76.20
2019-06-01T08:05:00.376Z,76.20
2019-06-01T08:07:29.372Z,74.30
2019-06-01T08:09:58.369Z,74.80
2019-06-01T08:12:27.543Z,74.10
2019-06-01T08:14:56.445Z,72.20
2019-06-01T08:17:25.956Z,73.40
2019-06-01T08:19:55.187Z,72.10
2019-06-01T08:22:24.144Z,71.70
2019-06-01T08:24:53.137Z,72.80
2019-06-01T08:27:22.438Z,68.70
2019-06-01T08:29:51.536Z,67.10
2019-06-01T08:32:20.406Z,68.80
2019-06-01T08:35:04.603Z,69.10
2019-06-01T08:37:20.425Z,68.50
2019-06-01T08:39:49.442Z,68.60
2019-06-01T08:42:18.474Z,67.50
2019-06-01T08:44:47.500Z,68.10
2019-06-01T08:47:17.308Z,65.10
2019-06-01T08:49:46.340Z,65.80
2019-06-01T08:52:15.711Z,66.40
2019-06-01T08:54:44.664Z,61.30
2019-06-01T08:57:13.763Z,63.30
2019-06-01T08:59:42.592Z,62.10
2019-06-01T09:02:11.644Z,59.60
2019-06-01T09:04:40.624Z,59.50
2019-06-01T09:07:09.838Z,58.10
2019-06-01T09:09:38.921Z,57.90
2019-06-01T09:12:08.117Z,56.50
2019-06-01T09:14:37.084Z,57.50
2019-06-01T09:17:06.228Z,54.80
2019-06-01T09:19:35.740Z,55.60
2019-06-01T09:22:04.991Z,56.20
2019-06-01T09:24:34.118Z,55.50
2019-06-01T09:27:03.222Z,55.80
2019-06-01T09:29:32.156Z,55.80
2019-06-01T09:32:03.087Z,56.50
2019-06-01T09:34:32.458Z,55.90
2019-06-01T09:37:01.450Z,55.40
2019-06-01T09:39:31.001Z,54.90
2019-06-01T09:42:00.351Z,54.40
2019-06-01T09:44:29.443Z,53.10
2019-06-01T09:46:58.286Z,55.10
2019-06-01T09:49:27.370Z,55.60
2019-06-01T09:51:56.636Z,55.00
2019-06-01T09:54:25.836Z,54.10
2019-06-01T09:56:54.807Z,53.70
2019-06-01T09:59:23.819Z,53.00
2019-06-01T10:01:52.759Z,52.60
2019-06-01T10:04:21.705Z,54.30
2019-06-01T10:06:50.691Z,55.00
2019-06-01T10:09:19.599Z,50.60
2019-06-01T10:11:48.690Z,52.60
2019-06-01T10:14:17.671Z,52.40
2019-06-01T10:16:46.675Z,51.80
2019-06-01T10:19:15.902Z,51.50
2019-06-01T10:21:44.738Z,51.80
2019-06-01T10:24:13.825Z,50.60
2019-06-01T10:26:42.994Z,51.00
2019-06-01T10:29:11.859Z,49.60
2019-06-01T10:31:41.659Z,49.40
2019-06-01T10:34:10.969Z,50.70
2019-06-01T10:36:40.573Z,49.30
2019-06-01T10:39:09.561Z,50.80
2019-06-01T10:41:39.661Z,52.20
2019-06-01T10:44:10.328Z,49.80
2019-06-01T10:46:40.175Z,49.20
2019-06-01T10:49:09.323Z,50.60
2019-06-01T10:51:38.356Z,49.50
2019-06-01T10:54:07.405Z,49.20
2019-06-01T10:56:36.334Z,48.10
2019-06-01T10:59:05.577Z,50.50
2019-06-01T11:01:35.894Z,48.50
2019-06-01T11:04:05.506Z,50.20
2019-06-01T11:06:42.098Z,48.80
2019-06-01T11:09:07.881Z,47.20
2019-06-01T11:11:37.166Z,47.80
2019-06-01T11:14:06.958Z,48.70
2019-06-01T11:16:37.180Z,48.10
2019-06-01T11:19:06.295Z,48.20
2019-06-01T11:21:35.573Z,45.00
2019-06-01T11:24:05.190Z,46.70
2019-06-01T11:26:35.483Z,45.70
2019-06-01T11:29:04.706Z,45.10
2019-06-01T11:31:33.907Z,46.20
2019-06-01T11:34:02.887Z,45.10
2019-06-01T11:36:31.827Z,46.80
2019-06-01T11:39:00.881Z,46.80
2019-06-01T11:41:29.724Z,44.80
2019-06-01T11:43:58.752Z,44.00
2019-06-01T11:46:27.987Z,45.10
2019-06-01T11:48:56.878Z,45.60
2019-06-01T11:51:26.178Z,45.30
2019-06-01T11:53:55.447Z,44.70
2019-06-01T11:56:24.579Z,44.80
2019-06-01T11:58:54.184Z,44.10
2019-06-01T12:01:23.204Z,44.50
2019-06-01T12:03:52.046Z,43.30
2019-06-01T12:06:22.068Z,43.10
2019-06-01T12:08:51.902Z,41.90
2019-06-01T12:11:27.057Z,43.40
2019-06-01T12:13:56.350Z,42.00
2019-06-01T12:16:25.755Z,41.70
2019-06-01T12:18:54.647Z,42.20
2019-06-01T12:21:24.518Z,43.60
2019-06-01T12:23:56.730Z,43.30
2019-06-01T12:26:25.614Z,42.50
2019-06-01T12:28:54.610Z,41.90
2019-06-01T12:31:23.559Z,41.10
2019-06-01T12:33:52.491Z,40.60
2019-06-01T12:36:21.410Z,43.00
2019-06-01T12:38:51.395Z,43.10
2019-06-01T12:41:21.876Z,42.70
2019-06-01T12:44:09.453Z,41.70
2019-06-01T12:46:39.965Z,41.90
2019-06-01T12:49:09.602Z,40.20
2019-06-01T12:51:40.407Z,42.60
2019-06-01T12:54:09.845Z,42.20
2019-06-01T12:56:38.934Z,42.00
2019-06-01T12:59:07.826Z,41.60
2019-06-01T13:01:36.936Z,42.20
2019-06-01T13:04:05.812Z,40.00
2019-06-01T13:06:34.706Z,40.00
2019-06-01T13:09:05.447Z,41.40
2019-06-01T13:11:34.436Z,42.50
2019-06-01T13:14:04.371Z,40.40
2019-06-01T13:16:33.529Z,40.40
2019-06-01T13:19:02.551Z,40.80
2019-06-01T13:21:31.419Z,39.40
2019-06-01T13:24:00.615Z,38.90
2019-06-01T13:26:29.543Z,41.30
2019-06-01T13:28:58.536Z,37.90
2019-06-01T13:31:27.527Z,37.40
2019-06-01T13:33:57.025Z,38.20
2019-06-01T13:36:26.413Z,38.00
2019-06-01T13:38:55.409Z,38.70
2019-06-01T13:41:24.428Z,39.30
2019-06-01T13:43:53.631Z,39.20
2019-06-01T13:46:22.621Z,39.00
2019-06-01T13:48:52.673Z,37.90
2019-06-01T13:51:22.853Z,36.90
2019-06-01T13:53:52.930Z,38.30
2019-06-01T13:56:21.846Z,37.60
2019-06-01T13:58:50.767Z,38.80
2019-06-01T14:01:19.857Z,35.50
2019-06-01T14:03:49.390Z,37.50
2019-06-01T14:06:18.333Z,36.70
2019-06-01T14:08:47.345Z,36.90
2019-06-01T14:11:16.221Z,36.90
2019-06-01T14:13:45.348Z,35.90
2019-06-01T14:16:14.540Z,35.90
2019-06-01T14:18:43.528Z,36.40
2019-06-01T14:21:12.399Z,35.50
2019-06-01T14:23:41.394Z,35.40
2019-06-01T14:26:10.373Z,34.80
2019-06-01T14:28:39.304Z,35.90
2019-06-01T14:31:08.299Z,35.30
2019-06-01T14:33:37.223Z,36.10
2019-06-01T14:36:06.602Z,37.00
2019-06-01T14:38:46.677Z,35.80
2019-06-01T14:41:06.291Z,35.60
2019-06-01T14:43:35.330Z,35.60
2019-06-01T14:46:04.549Z,36.10
2019-06-01T14:48:33.518Z,35.60
2019-06-01T14:51:02.305Z,35.50
2019-06-01T14:53:31.294Z,35.80
2019-06-01T14:56:00.114Z,35.20
2019-06-01T14:58:29.091Z,35.80
2019-06-01T15:00:58.548Z,34.20
2019-06-01T15:03:28.187Z,34.80
2019-06-01T15:05:58.623Z,34.90
2019-06-01T15:08:27.722Z,34.40
2019-06-01T15:10:57.131Z,35.00
2019-06-01T15:13:26.188Z,35.90
2019-06-01T15:15:55.621Z,36.50
2019-06-01T15:18:24.654Z,36.50
2019-06-01T15:20:53.828Z,35.60
2019-06-01T15:23:22.938Z,35.30
2019-06-01T15:25:52.383Z,36.70
2019-06-01T15:28:22.429Z,35.20
2019-06-01T15:30:52.752Z,34.40
2019-06-01T15:33:21.758Z,33.70
2019-06-01T15:35:52.212Z,34.40
2019-06-01T15:38:21.168Z,33.70
2019-06-01T15:40:50.158Z,33.80
2019-06-01T15:43:19.286Z,34.60
2019-06-01T15:45:48.137Z,34.40
2019-06-01T15:48:18.549Z,34.30
2019-06-01T15:50:47.448Z,34.80
2019-06-01T15:53:16.533Z,34.90
2019-06-01T15:55:45.568Z,34.60
2019-06-01T15:58:14.676Z,34.90
2019-06-01T16:00:43.514Z,34.00
2019-06-01T16:03:12.347Z,34.10
2019-06-01T16:05:41.289Z,35.00
2019-06-01T16:08:10.697Z,34.90
2019-06-01T16:10:39.934Z,35.10
2019-06-01T16:13:09.050Z,33.80
2019-06-01T16:15:38.238Z,33.80
2019-06-01T16:20:44.151Z,34.50
2019-06-01T16:23:13.117Z,34.10
2019-06-01T16:25:41.952Z,33.30
2019-06-01T16:28:10.937Z,33.20
2019-06-01T16:30:40.102Z,34.00
2019-06-01T16:33:09.096Z,36.10
2019-06-01T16:35:38.067Z,33.70
2019-06-01T16:38:06.982Z,34.40
2019-06-01T16:40:35.874Z,34.70
2019-06-01T16:43:05.724Z,32.50
2019-06-01T16:45:37.688Z,32.30
2019-06-01T16:48:06.739Z,32.30
2019-06-01T16:50:35.707Z,33.80
2019-06-01T16:53:06.172Z,33.30
2019-06-01T16:55:35.243Z,34.50
2019-06-01T16:58:06.312Z,33.70
2019-06-01T17:00:35.213Z,33.70
2019-06-01T17:03:05.114Z,34.20
2019-06-01T17:05:35.647Z,33.00
2019-06-01T17:08:07.037Z,33.20
2019-06-01T17:10:35.856Z,34.10
2019-06-01T17:13:08.359Z,34.30
2019-06-01T17:15:35.906Z,34.30
2019-06-01T17:18:09.662Z,35.70
2019-06-01T17:20:44.779Z,35.50
2019-06-01T17:23:26.943Z,35.70
2019-06-01T17:25:44.402Z,35.10
2019-06-01T17:28:13.391Z,35.80
2019-06-01T17:30:42.802Z,36.30
2019-06-01T17:33:13.168Z,35.20
2019-06-01T17:35:42.187Z,36.60
2019-06-01T17:38:12.143Z,36.60
2019-06-01T17:40:43.080Z,37.00
2019-06-01T17:43:13.142Z,36.60
2019-06-01T17:45:44.124Z,37.40
2019-06-01T17:48:25.815Z,37.30
2019-06-01T17:50:44.898Z,37.90
2019-06-01T17:53:13.845Z,39.30
2019-06-01T17:55:43.029Z,40.60
2019-06-01T17:58:12.631Z,41.10
2019-06-01T18:00:41.931Z,41.70
2019-06-01T18:03:11.926Z,43.20
2019-06-01T18:05:41.307Z,44.50
2019-06-01T18:08:10.432Z,45.30
2019-06-01T18:13:31.820Z,45.60
2019-06-01T18:16:02.877Z,46.30
2019-06-01T18:18:31.233Z,47.90
2019-06-01T18:21:00.374Z,48.60
2019-06-01T18:23:29.347Z,50.00
2019-06-01T18:25:58.249Z,51.10
2019-06-01T18:28:27.464Z,52.30
2019-06-01T18:30:56.436Z,52.30
2019-06-01T18:33:25.431Z,53.30
2019-06-01T18:35:54.619Z,54.40
2019-06-01T18:38:26.097Z,54.80
2019-06-01T18:41:08.749Z,55.90
2019-06-01T18:43:25.721Z,56.50
2019-06-01T18:45:55.018Z,57.10
2019-06-01T18:48:24.006Z,56.90
2019-06-01T18:50:53.546Z,57.40
2019-06-01T18:53:22.836Z,57.70
2019-06-01T18:55:54.079Z,58.50
2019-06-01T18:58:48.132Z,59.00
2019-06-01T19:01:20.757Z,59.50
2019-06-01T19:03:47.929Z,59.40
2019-06-01T19:06:16.780Z,59.80
2019-06-01T19:08:45.640Z,59.60
2019-06-01T19:11:29.409Z,59.90
2019-06-01T19:13:45.436Z,59.50
2019-06-01T19:16:14.568Z,60.40
2019-06-01T19:18:43.495Z,60.30
2019-06-01T19:21:12.721Z,60.30
2019-06-01T19:23:41.620Z,61.20
2019-06-01T19:26:13.325Z,61.30
2019-06-01T19:28:41.017Z,61.80
2019-06-01T19:31:11.106Z,62.10
2019-06-01T19:33:40.113Z,62.70
2019-06-01T19:36:09.110Z,62.70
2019-06-01T19:38:39.369Z,63.70
2019-06-01T19:41:09.135Z,63.40
2019-06-01T19:43:38.336Z,63.50
2019-06-01T19:46:07.665Z,63.50
2019-06-01T19:48:36.596Z,63.50
2019-06-01T19:51:05.566Z,64.40
2019-06-01T19:53:34.545Z,64.60
2019-06-01T19:56:03.621Z,66.50
2019-06-01T19:58:32.628Z,65.90
2019-06-01T20:01:01.545Z,66.50
2019-06-01T20:03:30.692Z,66.10
2019-06-01T20:05:59.759Z,65.70
2019-06-01T20:08:31.844Z,66.20
2019-06-01T20:11:00.864Z,66.60
2019-06-01T20:13:29.970Z,66.50
2019-06-01T20:15:59.134Z,66.70
2019-06-01T20:18:28.122Z,67.60
2019-06-01T20:20:57.135Z,67.50
2019-06-01T20:23:25.978Z,68.00
2019-06-01T20:25:54.902Z,68.60
2019-06-01T20:28:23.816Z,68.40
2019-06-01T20:30:52.637Z,68.60
2019-06-01T20:33:22.560Z,68.70
2019-06-01T20:35:51.821Z,68.60
2019-06-01T20:38:20.704Z,69.30
2019-06-01T20:40:49.717Z,69.40
2019-06-01T20:43:18.740Z,69.60
2019-06-01T20:45:47.768Z,70.00
2019-06-01T20:48:17.208Z,69.90
2019-06-01T20:50:46.405Z,71.10
2019-06-01T20:53:15.288Z,70.30
2019-06-01T20:55:44.277Z,70.70
2019-06-01T20:58:13.765Z,70.20
2019-06-01T21:00:44.300Z,70.60
2019-06-01T21:03:13.744Z,71.10
2019-06-01T21:05:44.339Z,71.30
2019-06-01T21:08:14.034Z,72.10
2019-06-01T21:10:43.275Z,72.10
2019-06-01T21:13:12.264Z,72.20
2019-06-01T21:15:41.098Z,72.30
2019-06-01T21:18:10.049Z,72.70
2019-06-01T21:20:39.328Z,73.10
2019-06-01T21:23:08.206Z,73.00
2019-06-01T21:25:37.252Z,73.20
2019-06-01T21:28:06.202Z,73.20
2019-06-01T21:30:35.116Z,73.50
2019-06-01T21:33:04.095Z,73.70
2019-06-01T21:35:33.092Z,73.90
2019-06-01T21:38:02.416Z,73.90
2019-06-01T21:40:31.572Z,74.00
2019-06-01T21:43:12.843Z,74.00
2019-06-01T21:45:31.133Z,74.00
2019-06-01T21:48:01.360Z,74.20
2019-06-01T21:50:30.354Z,74.30
2019-06-01T21:52:59.238Z,74.70
2019-06-01T21:55:28.242Z,75.10
2019-06-01T21:57:57.134Z,75.40
2019-06-01T22:00:30.576Z,75.40
2019-06-01T22:02:59.573Z,75.50
2019-06-01T22:05:28.526Z,75.90
2019-06-01T22:07:57.410Z,75.60
2019-06-01T22:10:27.736Z,75.80
2019-06-01T22:12:56.840Z,76.90
2019-06-01T22:15:25.920Z,76.50
2019-06-01T22:17:54.895Z,76.60
2019-06-01T22:20:24.145Z,76.80
2019-06-01T22:22:53.237Z,77.00
2019-06-01T22:25:22.358Z,77.30
2019-06-01T22:27:52.215Z,77.50
2019-06-01T22:30:22.268Z,77.50
2019-06-01T22:32:51.365Z,77.60
2019-06-01T22:35:20.883Z,77.80
2019-06-01T22:37:49.874Z,78.10
2019-06-01T22:40:20.913Z,78.00
2019-06-01T22:42:49.406Z,77.90
2019-06-01T22:45:18.494Z,78.00
2019-06-01T22:47:47.451Z,78.10
2019-06-01T22:50:16.767Z,78.40
2019-06-01T22:52:45.589Z,78.60
2019-06-01T22:55:14.743Z,78.70
2019-06-01T22:57:43.643Z,79.00
2019-06-01T23:00:12.549Z,78.90
2019-06-01T23:02:41.497Z,78.70
2019-06-01T23:05:11.215Z,78.90
2019-06-01T23:07:40.230Z,79.30
2019-06-01T23:10:09.734Z,79.60
2019-06-01T23:12:38.835Z,79.80
2019-06-01T23:15:08.142Z,79.80
2019-06-01T23:17:37.130Z,80.10
2019-06-01T23:20:07.460Z,80.10
2019-06-01T23:22:36.461Z,80.40
2019-06-01T23:25:06.334Z,80.90
2019-06-01T23:27:35.272Z,81.10
2019-06-01T23:30:06.816Z,81.60
2019-06-01T23:32:35.697Z,81.70
2019-06-01T23:35:05.440Z,81.70
2019-06-01T23:37:34.446Z,82.00
2019-06-01T23:40:03.894Z,82.30
2019-06-01T23:42:33.032Z,82.70
2019-06-01T23:45:02.121Z,82.70
2019-06-01T23:47:31.422Z,82.60
2019-06-01T23:50:01.444Z,82.40
2019-06-01T23:52:31.588Z,82.50
2019-06-01T23:55:00.864Z,83.10
2019-06-01T23:57:30.090Z,83.50
2019-06-01T23:59:59.137Z,83.50
